This is the latest recevied weather packets stored in our database for station/object N5XJB. If no packets are shown the sender has not sent any weather packets the latest 10 day(s).
| Time | Temp. | Humidity | Pressure | Rain* | Wind** | Luminosity | Snow |
|---|---|---|---|---|---|---|---|
| 1778021557 | 28.33° C | 75% | 1007.7 hPa | 0 mm | - | 92 W/m² | - |
| 1778021252 | 28.33° C | 75% | 1007.7 hPa | 0 mm | - | 114 W/m² | - |
| 1778020950 | 28.33° C | 75% | 1007.3 hPa | 0 mm | - | 123 W/m² | - |
| 1778020648 | 28.89° C | 74% | 1007.7 hPa | 0 mm | - | 82 W/m² | - |
| 1778020344 | 28.89° C | 73% | 1007.7 hPa | 0 mm | - | 202 W/m² | - |
| 1778020040 | 28.89° C | 73% | 1007.7 hPa | 0 mm | - | 209 W/m² | - |
| 1778019736 | 28.89° C | 73% | 1007.7 hPa | 0 mm | - | 207 W/m² | - |
| 1778019433 | 28.89° C | 74% | 1008 hPa | 0 mm | - | 226 W/m² | - |
| 1778019130 | 28.89° C | 74% | 1008 hPa | 0 mm | - | 184 W/m² | - |
| 1778018827 | 28.89° C | 73% | 1007.7 hPa | 0 mm | - | 159 W/m² | - |
| 1778018525 | 29.44° C | 73% | 1007.7 hPa | 0 mm | - | 161 W/m² | - |
| 1778018222 | 29.44° C | 72% | 1008 hPa | 0 mm | - | 205 W/m² | - |
| 1778017920 | 28.89° C | 73% | 1008 hPa | 0 mm | - | 302 W/m² | - |
| 1778017617 | 28.89° C | 74% | 1008.3 hPa | 0 mm | - | 242 W/m² | - |
| 1778017315 | 28.89° C | 75% | 1008 hPa | 0 mm | - | 264 W/m² | - |
| 1778017012 | 28.89° C | 74% | 1008.3 hPa | 0 mm | - | 246 W/m² | - |
| 1778016709 | 29.44° C | 73% | 1008.3 hPa | 0 mm | - | 157 W/m² | - |
| 1778016404 | 29.44° C | 73% | 1008.3 hPa | 0 mm | - | 273 W/m² | - |
| 1778016102 | 29.44° C | 73% | 1008.3 hPa | 0 mm | - | 276 W/m² | - |
| 1778015799 | 30° C | 72% | 1008.3 hPa | 0 mm | - | 260 W/m² | - |
| 1778015497 | 29.44° C | 73% | 1008.3 hPa | 0 mm | - | 365 W/m² | - |
| 1778015193 | 29.44° C | 73% | 1008.7 hPa | 0 mm | - | 354 W/m² | - |
| 1778014890 | 29.44° C | 72% | 1008.7 hPa | 0 mm | - | 346 W/m² | - |
| 1778014587 | 29.44° C | 72% | 1008.7 hPa | 0 mm | - | 289 W/m² | - |
| 1778014285 | 30° C | 71% | 1008.7 hPa | 0 mm | - | 206 W/m² | - |
* Rain latest hour (hover to see other rain measurements)
** Current wind speed in m/s (hover to see current wind gust speed)